sensor_id;sensor_type;location;lat;lon;timestamp;P1;durP1;ratioP1;P2;durP2;ratioP2
14923;SDS011;7554;43.600;1.480;2022-07-15T00:00:37;6.80;;;4.38;;
14923;SDS011;7554;43.600;1.480;2022-07-15T00:03:04;8.07;;;4.28;;
14923;SDS011;7554;43.600;1.480;2022-07-15T00:05:32;7.40;;;4.60;;
14923;SDS011;7554;43.600;1.480;2022-07-15T00:07:59;7.82;;;3.70;;
14923;SDS011;7554;43.600;1.480;2022-07-15T00:10:27;8.93;;;4.38;;
14923;SDS011;7554;43.600;1.480;2022-07-15T00:12:57;9.20;;;4.70;;
14923;SDS011;7554;43.600;1.480;2022-07-15T00:15:27;7.55;;;4.50;;
14923;SDS011;7554;43.600;1.480;2022-07-15T00:17:56;7.20;;;4.15;;
14923;SDS011;7554;43.600;1.480;2022-07-15T00:20:27;8.85;;;4.95;;
14923;SDS011;7554;43.600;1.480;2022-07-15T00:22:59;6.70;;;4.55;;
14923;SDS011;7554;43.600;1.480;2022-07-15T00:25:27;6.78;;;4.43;;
14923;SDS011;7554;43.600;1.480;2022-07-15T00:27:57;12.00;;;4.22;;
14923;SDS011;7554;43.600;1.480;2022-07-15T00:30:28;4.22;;;3.70;;
14923;SDS011;7554;43.600;1.480;2022-07-15T00:32:57;6.20;;;4.20;;
14923;SDS011;7554;43.600;1.480;2022-07-15T00:35:25;4.53;;;3.70;;
14923;SDS011;7554;43.600;1.480;2022-07-15T00:37:53;4.57;;;3.30;;
14923;SDS011;7554;43.600;1.480;2022-07-15T00:40:20;7.65;;;3.25;;
14923;SDS011;7554;43.600;1.480;2022-07-15T00:42:48;7.53;;;3.53;;
14923;SDS011;7554;43.600;1.480;2022-07-15T00:45:18;5.30;;;3.53;;
14923;SDS011;7554;43.600;1.480;2022-07-15T00:47:47;4.05;;;3.42;;
14923;SDS011;7554;43.600;1.480;2022-07-15T00:50:16;5.40;;;3.60;;
14923;SDS011;7554;43.600;1.480;2022-07-15T00:52:56;5.82;;;3.70;;
14923;SDS011;7554;43.600;1.480;2022-07-15T00:55:26;7.50;;;3.75;;
14923;SDS011;7554;43.600;1.480;2022-07-15T00:57:57;7.32;;;3.90;;
14923;SDS011;7554;43.600;1.480;2022-07-15T01:00:28;3.60;;;3.30;;
14923;SDS011;7554;43.600;1.480;2022-07-15T01:02:57;3.75;;;3.45;;
14923;SDS011;7554;43.600;1.480;2022-07-15T01:05:26;5.25;;;3.88;;
14923;SDS011;7554;43.600;1.480;2022-07-15T01:07:55;5.40;;;4.07;;
14923;SDS011;7554;43.600;1.480;2022-07-15T01:10:22;5.95;;;3.88;;
14923;SDS011;7554;43.600;1.480;2022-07-15T01:12:50;7.63;;;3.50;;
14923;SDS011;7554;43.600;1.480;2022-07-15T01:15:18;7.00;;;3.67;;
14923;SDS011;7554;43.600;1.480;2022-07-15T01:17:47;5.32;;;3.80;;
14923;SDS011;7554;43.600;1.480;2022-07-15T01:20:15;5.70;;;3.28;;
14923;SDS011;7554;43.600;1.480;2022-07-15T01:22:44;4.43;;;3.27;;
14923;SDS011;7554;43.600;1.480;2022-07-15T01:25:13;4.38;;;3.28;;
14923;SDS011;7554;43.600;1.480;2022-07-15T01:27:40;4.10;;;3.70;;
14923;SDS011;7554;43.600;1.480;2022-07-15T01:30:08;4.80;;;3.53;;
14923;SDS011;7554;43.600;1.480;2022-07-15T01:32:36;5.72;;;3.60;;
14923;SDS011;7554;43.600;1.480;2022-07-15T01:35:04;4.13;;;3.37;;
14923;SDS011;7554;43.600;1.480;2022-07-15T01:37:33;7.00;;;3.13;;
14923;SDS011;7554;43.600;1.480;2022-07-15T01:40:02;5.60;;;3.30;;
14923;SDS011;7554;43.600;1.480;2022-07-15T01:42:30;6.13;;;3.40;;
14923;SDS011;7554;43.600;1.480;2022-07-15T01:44:57;4.80;;;3.07;;
14923;SDS011;7554;43.600;1.480;2022-07-15T01:47:25;4.87;;;3.27;;
14923;SDS011;7554;43.600;1.480;2022-07-15T01:49:52;3.87;;;3.03;;
14923;SDS011;7554;43.600;1.480;2022-07-15T01:52:18;6.30;;;3.20;;
14923;SDS011;7554;43.600;1.480;2022-07-15T01:54:46;4.50;;;3.03;;
14923;SDS011;7554;43.600;1.480;2022-07-15T01:57:15;4.37;;;3.47;;
14923;SDS011;7554;43.600;1.480;2022-07-15T01:59:42;6.55;;;3.20;;
14923;SDS011;7554;43.600;1.480;2022-07-15T02:02:10;4.60;;;3.40;;
14923;SDS011;7554;43.600;1.480;2022-07-15T02:04:37;5.70;;;3.50;;
14923;SDS011;7554;43.600;1.480;2022-07-15T02:07:04;4.20;;;3.80;;
14923;SDS011;7554;43.600;1.480;2022-07-15T02:09:32;6.90;;;3.90;;
14923;SDS011;7554;43.600;1.480;2022-07-15T02:11:59;7.35;;;4.47;;
14923;SDS011;7554;43.600;1.480;2022-07-15T02:14:28;7.53;;;4.30;;
14923;SDS011;7554;43.600;1.480;2022-07-15T02:16:55;8.03;;;5.03;;
14923;SDS011;7554;43.600;1.480;2022-07-15T02:19:23;5.77;;;5.27;;
14923;SDS011;7554;43.600;1.480;2022-07-15T02:21:50;7.47;;;6.53;;
14923;SDS011;7554;43.600;1.480;2022-07-15T02:24:18;7.90;;;6.60;;
14923;SDS011;7554;43.600;1.480;2022-07-15T02:26:45;9.80;;;7.03;;
14923;SDS011;7554;43.600;1.480;2022-07-15T02:29:13;9.97;;;6.30;;
14923;SDS011;7554;43.600;1.480;2022-07-15T02:31:42;7.35;;;6.60;;
14923;SDS011;7554;43.600;1.480;2022-07-15T02:34:10;9.17;;;6.37;;
14923;SDS011;7554;43.600;1.480;2022-07-15T02:36:37;8.33;;;6.13;;
14923;SDS011;7554;43.600;1.480;2022-07-15T02:39:04;11.03;;;7.10;;
14923;SDS011;7554;43.600;1.480;2022-07-15T02:41:32;8.27;;;6.50;;
14923;SDS011;7554;43.600;1.480;2022-07-15T02:43:59;7.93;;;7.00;;
14923;SDS011;7554;43.600;1.480;2022-07-15T02:46:27;8.80;;;7.07;;
14923;SDS011;7554;43.600;1.480;2022-07-15T02:48:56;10.40;;;8.00;;
14923;SDS011;7554;43.600;1.480;2022-07-15T02:51:23;8.83;;;7.50;;
14923;SDS011;7554;43.600;1.480;2022-07-15T02:53:51;10.40;;;7.63;;
14923;SDS011;7554;43.600;1.480;2022-07-15T02:56:18;10.97;;;8.30;;
14923;SDS011;7554;43.600;1.480;2022-07-15T02:58:45;8.80;;;7.90;;
14923;SDS011;7554;43.600;1.480;2022-07-15T03:01:13;14.30;;;9.10;;
14923;SDS011;7554;43.600;1.480;2022-07-15T03:03:40;10.23;;;9.13;;
14923;SDS011;7554;43.600;1.480;2022-07-15T03:06:09;10.87;;;9.03;;
14923;SDS011;7554;43.600;1.480;2022-07-15T03:08:36;10.80;;;9.10;;
14923;SDS011;7554;43.600;1.480;2022-07-15T03:11:04;22.47;;;9.40;;
14923;SDS011;7554;43.600;1.480;2022-07-15T03:13:31;13.13;;;9.13;;
14923;SDS011;7554;43.600;1.480;2022-07-15T03:15:59;13.80;;;9.53;;
14923;SDS011;7554;43.600;1.480;2022-07-15T03:18:26;11.70;;;8.83;;
14923;SDS011;7554;43.600;1.480;2022-07-15T03:20:54;10.43;;;9.33;;
14923;SDS011;7554;43.600;1.480;2022-07-15T03:23:23;10.87;;;9.53;;
14923;SDS011;7554;43.600;1.480;2022-07-15T03:25:50;11.07;;;8.90;;
14923;SDS011;7554;43.600;1.480;2022-07-15T03:28:17;11.50;;;9.80;;
14923;SDS011;7554;43.600;1.480;2022-07-15T03:30:45;11.50;;;9.40;;
14923;SDS011;7554;43.600;1.480;2022-07-15T03:33:12;10.97;;;9.50;;
14923;SDS011;7554;43.600;1.480;2022-07-15T03:35:40;13.60;;;10.13;;
14923;SDS011;7554;43.600;1.480;2022-07-15T03:38:08;14.83;;;10.30;;
14923;SDS011;7554;43.600;1.480;2022-07-15T03:40:37;14.73;;;10.23;;
14923;SDS011;7554;43.600;1.480;2022-07-15T03:43:04;11.43;;;10.23;;
14923;SDS011;7554;43.600;1.480;2022-07-15T03:45:31;12.00;;;10.03;;
14923;SDS011;7554;43.600;1.480;2022-07-15T03:47:59;11.93;;;10.00;;
14923;SDS011;7554;43.600;1.480;2022-07-15T03:50:26;12.90;;;9.50;;
14923;SDS011;7554;43.600;1.480;2022-07-15T03:52:54;10.97;;;9.87;;
14923;SDS011;7554;43.600;1.480;2022-07-15T03:55:21;17.47;;;10.27;;
14923;SDS011;7554;43.600;1.480;2022-07-15T03:57:50;11.07;;;9.90;;
14923;SDS011;7554;43.600;1.480;2022-07-15T04:00:17;14.40;;;10.03;;
14923;SDS011;7554;43.600;1.480;2022-07-15T04:02:45;13.43;;;10.23;;
14923;SDS011;7554;43.600;1.480;2022-07-15T04:05:12;10.53;;;9.50;;
14923;SDS011;7554;43.600;1.480;2022-07-15T04:07:40;11.37;;;9.70;;
14923;SDS011;7554;43.600;1.480;2022-07-15T04:10:07;10.90;;;9.73;;
14923;SDS011;7554;43.600;1.480;2022-07-15T04:12:35;11.77;;;10.23;;
14923;SDS011;7554;43.600;1.480;2022-07-15T04:15:05;10.33;;;9.13;;
14923;SDS011;7554;43.600;1.480;2022-07-15T04:17:32;11.67;;;10.47;;
14923;SDS011;7554;43.600;1.480;2022-07-15T04:20:00;10.90;;;9.80;;
14923;SDS011;7554;43.600;1.480;2022-07-15T04:22:28;10.40;;;9.40;;
14923;SDS011;7554;43.600;1.480;2022-07-15T04:24:55;13.77;;;10.33;;
14923;SDS011;7554;43.600;1.480;2022-07-15T04:27:23;11.57;;;10.37;;
14923;SDS011;7554;43.600;1.480;2022-07-15T04:29:50;11.00;;;9.90;;
14923;SDS011;7554;43.600;1.480;2022-07-15T04:32:19;11.77;;;10.17;;
14923;SDS011;7554;43.600;1.480;2022-07-15T04:34:47;12.67;;;10.70;;
14923;SDS011;7554;43.600;1.480;2022-07-15T04:37:14;15.00;;;10.80;;
14923;SDS011;7554;43.600;1.480;2022-07-15T04:39:41;12.93;;;10.27;;
14923;SDS011;7554;43.600;1.480;2022-07-15T04:42:09;11.30;;;10.10;;
14923;SDS011;7554;43.600;1.480;2022-07-15T04:44:36;11.27;;;10.13;;
14923;SDS011;7554;43.600;1.480;2022-07-15T04:47:03;13.93;;;10.90;;
14923;SDS011;7554;43.600;1.480;2022-07-15T04:49:32;11.73;;;10.50;;
14923;SDS011;7554;43.600;1.480;2022-07-15T04:52:17;15.67;;;10.83;;
14923;SDS011;7554;43.600;1.480;2022-07-15T04:54:45;13.53;;;11.30;;
14923;SDS011;7554;43.600;1.480;2022-07-15T04:57:12;12.97;;;10.93;;
14923;SDS011;7554;43.600;1.480;2022-07-15T04:59:39;13.07;;;11.00;;
14923;SDS011;7554;43.600;1.480;2022-07-15T05:02:07;14.27;;;11.87;;
14923;SDS011;7554;43.600;1.480;2022-07-15T05:04:35;14.53;;;11.10;;
14923;SDS011;7554;43.600;1.480;2022-07-15T05:07:04;17.80;;;10.97;;
14923;SDS011;7554;43.600;1.480;2022-07-15T05:09:32;14.03;;;10.73;;
14923;SDS011;7554;43.600;1.480;2022-07-15T05:11:59;14.18;;;11.05;;
14923;SDS011;7554;43.600;1.480;2022-07-15T05:14:27;13.30;;;11.60;;
14923;SDS011;7554;43.600;1.480;2022-07-15T05:16:54;14.50;;;11.60;;
14923;SDS011;7554;43.600;1.480;2022-07-15T05:19:22;13.77;;;12.30;;
14923;SDS011;7554;43.600;1.480;2022-07-15T05:21:51;13.65;;;11.38;;
14923;SDS011;7554;43.600;1.480;2022-07-15T05:24:18;14.15;;;11.90;;
14923;SDS011;7554;43.600;1.480;2022-07-15T05:26:45;14.40;;;12.90;;
14923;SDS011;7554;43.600;1.480;2022-07-15T05:29:13;14.70;;;11.88;;
14923;SDS011;7554;43.600;1.480;2022-07-15T05:31:40;19.80;;;12.50;;
14923;SDS011;7554;43.600;1.480;2022-07-15T05:34:08;15.52;;;12.50;;
14923;SDS011;7554;43.600;1.480;2022-07-15T05:36:36;16.38;;;13.20;;
14923;SDS011;7554;43.600;1.480;2022-07-15T05:39:05;18.63;;;13.65;;
14923;SDS011;7554;43.600;1.480;2022-07-15T05:41:32;16.10;;;13.40;;
14923;SDS011;7554;43.600;1.480;2022-07-15T05:44:00;15.05;;;13.15;;
14923;SDS011;7554;43.600;1.480;2022-07-15T05:46:28;15.32;;;13.70;;
14923;SDS011;7554;43.600;1.480;2022-07-15T05:48:55;15.48;;;13.60;;
14923;SDS011;7554;43.600;1.480;2022-07-15T05:51:22;16.92;;;14.80;;
14923;SDS011;7554;43.600;1.480;2022-07-15T05:53:50;15.55;;;13.98;;
14923;SDS011;7554;43.600;1.480;2022-07-15T05:56:19;16.52;;;14.80;;
14923;SDS011;7554;43.600;1.480;2022-07-15T05:58:47;16.85;;;15.02;;
14923;SDS011;7554;43.600;1.480;2022-07-15T06:01:14;17.38;;;15.57;;
14923;SDS011;7554;43.600;1.480;2022-07-15T06:03:41;18.52;;;15.35;;
14923;SDS011;7554;43.600;1.480;2022-07-15T06:06:09;16.80;;;14.85;;
14923;SDS011;7554;43.600;1.480;2022-07-15T06:08:36;21.45;;;15.45;;
14923;SDS011;7554;43.600;1.480;2022-07-15T06:11:04;17.38;;;15.32;;
14923;SDS011;7554;43.600;1.480;2022-07-15T06:13:35;22.08;;;16.30;;
14923;SDS011;7554;43.600;1.480;2022-07-15T06:16:03;16.48;;;14.85;;
14923;SDS011;7554;43.600;1.480;2022-07-15T06:18:31;19.48;;;15.50;;
14923;SDS011;7554;43.600;1.480;2022-07-15T06:20:58;16.48;;;14.88;;
14923;SDS011;7554;43.600;1.480;2022-07-15T06:23:26;21.35;;;16.13;;
14923;SDS011;7554;43.600;1.480;2022-07-15T06:25:54;16.60;;;14.48;;
14923;SDS011;7554;43.600;1.480;2022-07-15T06:28:22;16.38;;;14.65;;
14923;SDS011;7554;43.600;1.480;2022-07-15T06:30:51;16.23;;;14.45;;
14923;SDS011;7554;43.600;1.480;2022-07-15T06:33:18;15.90;;;14.25;;
14923;SDS011;7554;43.600;1.480;2022-07-15T06:35:46;18.60;;;14.68;;
14923;SDS011;7554;43.600;1.480;2022-07-15T06:38:15;17.40;;;14.63;;
14923;SDS011;7554;43.600;1.480;2022-07-15T06:40:42;18.58;;;14.18;;
14923;SDS011;7554;43.600;1.480;2022-07-15T06:43:10;16.35;;;14.75;;
14923;SDS011;7554;43.600;1.480;2022-07-15T06:45:37;16.95;;;14.55;;
14923;SDS011;7554;43.600;1.480;2022-07-15T06:48:06;15.68;;;14.05;;
14923;SDS011;7554;43.600;1.480;2022-07-15T06:50:34;21.30;;;14.50;;
14923;SDS011;7554;43.600;1.480;2022-07-15T06:53:01;17.67;;;14.18;;
14923;SDS011;7554;43.600;1.480;2022-07-15T06:55:29;18.45;;;14.05;;
14923;SDS011;7554;43.600;1.480;2022-07-15T06:57:56;15.35;;;13.75;;
14923;SDS011;7554;43.600;1.480;2022-07-15T07:00:24;18.00;;;13.73;;
14923;SDS011;7554;43.600;1.480;2022-07-15T07:02:51;18.40;;;13.75;;
14923;SDS011;7554;43.600;1.480;2022-07-15T07:05:20;18.52;;;13.32;;
14923;SDS011;7554;43.600;1.480;2022-07-15T07:07:47;18.80;;;13.45;;
14923;SDS011;7554;43.600;1.480;2022-07-15T07:10:15;16.75;;;12.80;;
14923;SDS011;7554;43.600;1.480;2022-07-15T07:12:42;15.38;;;12.90;;
14923;SDS011;7554;43.600;1.480;2022-07-15T07:15:09;17.63;;;12.88;;
14923;SDS011;7554;43.600;1.480;2022-07-15T07:17:37;15.68;;;12.98;;
14923;SDS011;7554;43.600;1.480;2022-07-15T07:20:05;19.35;;;13.52;;
14923;SDS011;7554;43.600;1.480;2022-07-15T07:22:34;19.13;;;11.98;;
14923;SDS011;7554;43.600;1.480;2022-07-15T07:25:02;17.60;;;12.75;;
14923;SDS011;7554;43.600;1.480;2022-07-15T07:27:31;17.30;;;12.77;;
14923;SDS011;7554;43.600;1.480;2022-07-15T07:29:59;14.98;;;11.73;;
14923;SDS011;7554;43.600;1.480;2022-07-15T07:32:28;15.73;;;12.15;;
14923;SDS011;7554;43.600;1.480;2022-07-15T07:34:55;12.65;;;11.32;;
14923;SDS011;7554;43.600;1.480;2022-07-15T07:37:24;15.77;;;11.98;;
14923;SDS011;7554;43.600;1.480;2022-07-15T07:39:53;13.25;;;11.85;;
14923;SDS011;7554;43.600;1.480;2022-07-15T07:42:20;16.52;;;11.70;;
14923;SDS011;7554;43.600;1.480;2022-07-15T07:44:48;12.82;;;11.55;;
14923;SDS011;7554;43.600;1.480;2022-07-15T07:47:16;13.18;;;11.77;;
14923;SDS011;7554;43.600;1.480;2022-07-15T07:49:43;13.77;;;11.60;;
14923;SDS011;7554;43.600;1.480;2022-07-15T07:52:10;13.82;;;12.02;;
14923;SDS011;7554;43.600;1.480;2022-07-15T07:54:38;14.45;;;12.05;;
14923;SDS011;7554;43.600;1.480;2022-07-15T07:57:07;17.33;;;12.55;;
14923;SDS011;7554;43.600;1.480;2022-07-15T07:59:34;13.38;;;11.90;;
14923;SDS011;7554;43.600;1.480;2022-07-15T08:02:02;14.73;;;12.50;;
14923;SDS011;7554;43.600;1.480;2022-07-15T08:04:30;15.43;;;12.40;;
14923;SDS011;7554;43.600;1.480;2022-07-15T08:06:58;13.40;;;12.00;;
14923;SDS011;7554;43.600;1.480;2022-07-15T08:09:25;15.32;;;12.35;;
14923;SDS011;7554;43.600;1.480;2022-07-15T08:11:53;14.85;;;12.13;;
14923;SDS011;7554;43.600;1.480;2022-07-15T08:14:21;13.88;;;12.48;;
14923;SDS011;7554;43.600;1.480;2022-07-15T08:16:49;13.63;;;11.45;;
14923;SDS011;7554;43.600;1.480;2022-07-15T08:19:17;19.33;;;12.15;;
14923;SDS011;7554;43.600;1.480;2022-07-15T08:21:45;12.77;;;11.30;;
14923;SDS011;7554;43.600;1.480;2022-07-15T08:24:12;14.38;;;11.38;;
14923;SDS011;7554;43.600;1.480;2022-07-15T08:26:40;14.75;;;11.23;;
14923;SDS011;7554;43.600;1.480;2022-07-15T08:29:07;11.88;;;10.60;;
14923;SDS011;7554;43.600;1.480;2022-07-15T08:31:36;13.07;;;11.48;;
14923;SDS011;7554;43.600;1.480;2022-07-15T08:34:04;11.88;;;10.77;;
14923;SDS011;7554;43.600;1.480;2022-07-15T08:36:32;13.25;;;11.52;;
14923;SDS011;7554;43.600;1.480;2022-07-15T08:39:00;12.43;;;11.23;;
14923;SDS011;7554;43.600;1.480;2022-07-15T08:41:27;14.13;;;11.07;;
14923;SDS011;7554;43.600;1.480;2022-07-15T08:43:54;14.68;;;11.32;;
14923;SDS011;7554;43.600;1.480;2022-07-15T08:46:22;12.27;;;10.98;;
14923;SDS011;7554;43.600;1.480;2022-07-15T08:48:53;12.35;;;10.45;;
14923;SDS011;7554;43.600;1.480;2022-07-15T08:51:27;14.32;;;11.20;;
14923;SDS011;7554;43.600;1.480;2022-07-15T08:53:57;14.70;;;11.13;;
14923;SDS011;7554;43.600;1.480;2022-07-15T08:56:24;14.43;;;11.75;;
14923;SDS011;7554;43.600;1.480;2022-07-15T08:58:51;16.55;;;11.30;;
14923;SDS011;7554;43.600;1.480;2022-07-15T09:01:20;12.43;;;10.65;;
14923;SDS011;7554;43.600;1.480;2022-07-15T09:03:47;12.38;;;11.18;;
14923;SDS011;7554;43.600;1.480;2022-07-15T09:09:10;11.65;;;10.48;;
14923;SDS011;7554;43.600;1.480;2022-07-15T09:11:52;11.73;;;10.20;;
14923;SDS011;7554;43.600;1.480;2022-07-15T09:14:23;13.50;;;10.70;;
14923;SDS011;7554;43.600;1.480;2022-07-15T09:16:57;13.18;;;10.73;;
14923;SDS011;7554;43.600;1.480;2022-07-15T09:19:58;16.30;;;9.82;;
14923;SDS011;7554;43.600;1.480;2022-07-15T09:22:29;10.88;;;9.77;;
14923;SDS011;7554;43.600;1.480;2022-07-15T09:25:00;12.13;;;9.52;;
14923;SDS011;7554;43.600;1.480;2022-07-15T09:27:31;14.77;;;9.68;;
14923;SDS011;7554;43.600;1.480;2022-07-15T09:30:12;12.25;;;9.98;;
14923;SDS011;7554;43.600;1.480;2022-07-15T09:32:58;12.70;;;10.27;;
14923;SDS011;7554;43.600;1.480;2022-07-15T09:35:43;12.18;;;9.45;;
14923;SDS011;7554;43.600;1.480;2022-07-15T09:38:32;10.85;;;9.20;;
14923;SDS011;7554;43.600;1.480;2022-07-15T09:41:00;10.13;;;8.88;;
14923;SDS011;7554;43.600;1.480;2022-07-15T09:43:28;14.50;;;9.05;;
14923;SDS011;7554;43.600;1.480;2022-07-15T09:45:57;17.77;;;9.45;;
14923;SDS011;7554;43.600;1.480;2022-07-15T09:48:25;10.88;;;9.23;;
14923;SDS011;7554;43.600;1.480;2022-07-15T09:50:58;10.05;;;8.77;;
14923;SDS011;7554;43.600;1.480;2022-07-15T09:53:27;9.38;;;8.30;;
14923;SDS011;7554;43.600;1.480;2022-07-15T09:55:56;11.25;;;8.10;;
14923;SDS011;7554;43.600;1.480;2022-07-15T09:58:23;12.20;;;9.65;;
14923;SDS011;7554;43.600;1.480;2022-07-15T10:00:51;12.27;;;9.32;;
14923;SDS011;7554;43.600;1.480;2022-07-15T10:03:19;13.07;;;9.48;;
14923;SDS011;7554;43.600;1.480;2022-07-15T10:05:50;10.02;;;9.00;;
14923;SDS011;7554;43.600;1.480;2022-07-15T10:08:19;11.30;;;9.27;;
14923;SDS011;7554;43.600;1.480;2022-07-15T10:10:47;9.70;;;8.60;;
14923;SDS011;7554;43.600;1.480;2022-07-15T10:13:23;12.73;;;8.35;;
14923;SDS011;7554;43.600;1.480;2022-07-15T10:16:10;10.20;;;8.60;;
14923;SDS011;7554;43.600;1.480;2022-07-15T10:18:53;10.27;;;9.05;;
14923;SDS011;7554;43.600;1.480;2022-07-15T10:21:33;14.65;;;9.30;;
14923;SDS011;7554;43.600;1.480;2022-07-15T10:24:16;11.23;;;8.55;;
14923;SDS011;7554;43.600;1.480;2022-07-15T10:26:59;14.38;;;9.13;;
14923;SDS011;7554;43.600;1.480;2022-07-15T10:29:38;11.35;;;8.95;;
14923;SDS011;7554;43.600;1.480;2022-07-15T10:32:05;10.48;;;8.73;;
14923;SDS011;7554;43.600;1.480;2022-07-15T10:34:33;10.80;;;8.50;;
14923;SDS011;7554;43.600;1.480;2022-07-15T10:37:05;9.15;;;7.93;;
14923;SDS011;7554;43.600;1.480;2022-07-15T10:39:48;13.23;;;8.55;;
14923;SDS011;7554;43.600;1.480;2022-07-15T10:42:18;11.95;;;7.65;;
14923;SDS011;7554;43.600;1.480;2022-07-15T10:45:02;10.25;;;8.07;;
14923;SDS011;7554;43.600;1.480;2022-07-15T10:47:31;12.00;;;7.68;;
14923;SDS011;7554;43.600;1.480;2022-07-15T10:49:59;9.98;;;7.78;;
14923;SDS011;7554;43.600;1.480;2022-07-15T10:52:28;10.30;;;7.43;;
14923;SDS011;7554;43.600;1.480;2022-07-15T10:55:00;9.15;;;7.20;;
14923;SDS011;7554;43.600;1.480;2022-07-15T11:00:31;9.95;;;7.15;;
14923;SDS011;7554;43.600;1.480;2022-07-15T11:03:06;6.57;;;5.97;;
14923;SDS011;7554;43.600;1.480;2022-07-15T11:05:41;8.80;;;6.57;;
14923;SDS011;7554;43.600;1.480;2022-07-15T11:17:15;9.13;;;6.97;;
14923;SDS011;7554;43.600;1.480;2022-07-15T11:19:48;9.50;;;6.35;;
14923;SDS011;7554;43.600;1.480;2022-07-15T11:22:16;7.20;;;5.93;;
14923;SDS011;7554;43.600;1.480;2022-07-15T11:24:45;11.73;;;6.63;;
14923;SDS011;7554;43.600;1.480;2022-07-15T11:27:13;7.05;;;5.88;;
14923;SDS011;7554;43.600;1.480;2022-07-15T11:29:41;8.20;;;5.22;;
14923;SDS011;7554;43.600;1.480;2022-07-15T11:32:10;7.18;;;5.95;;
14923;SDS011;7554;43.600;1.480;2022-07-15T11:34:43;7.95;;;5.53;;
14923;SDS011;7554;43.600;1.480;2022-07-15T11:37:11;8.25;;;5.97;;
14923;SDS011;7554;43.600;1.480;2022-07-15T11:39:44;6.90;;;5.70;;
14923;SDS011;7554;43.600;1.480;2022-07-15T11:42:19;7.80;;;5.65;;
14923;SDS011;7554;43.600;1.480;2022-07-15T11:45:05;8.43;;;5.68;;
14923;SDS011;7554;43.600;1.480;2022-07-15T11:47:33;9.38;;;5.70;;
14923;SDS011;7554;43.600;1.480;2022-07-15T11:50:04;6.50;;;5.03;;
14923;SDS011;7554;43.600;1.480;2022-07-15T11:52:32;10.70;;;4.88;;
14923;SDS011;7554;43.600;1.480;2022-07-15T11:54:59;5.22;;;4.38;;
14923;SDS011;7554;43.600;1.480;2022-07-15T11:57:32;5.82;;;5.18;;
14923;SDS011;7554;43.600;1.480;2022-07-15T12:00:00;7.00;;;4.75;;
14923;SDS011;7554;43.600;1.480;2022-07-15T12:02:28;5.50;;;4.20;;
14923;SDS011;7554;43.600;1.480;2022-07-15T12:05:04;6.95;;;4.20;;
14923;SDS011;7554;43.600;1.480;2022-07-15T12:07:39;6.97;;;4.53;;
14923;SDS011;7554;43.600;1.480;2022-07-15T12:10:08;5.47;;;4.60;;
14923;SDS011;7554;43.600;1.480;2022-07-15T12:12:39;12.48;;;5.10;;
14923;SDS011;7554;43.600;1.480;2022-07-15T12:15:08;5.38;;;4.85;;
14923;SDS011;7554;43.600;1.480;2022-07-15T12:17:36;8.93;;;4.57;;
14923;SDS011;7554;43.600;1.480;2022-07-15T12:20:07;9.00;;;5.03;;
14923;SDS011;7554;43.600;1.480;2022-07-15T12:22:35;7.75;;;4.22;;
14923;SDS011;7554;43.600;1.480;2022-07-15T12:25:03;7.47;;;4.70;;
14923;SDS011;7554;43.600;1.480;2022-07-15T12:27:32;11.50;;;5.78;;
14923;SDS011;7554;43.600;1.480;2022-07-15T12:30:00;9.20;;;5.90;;
14923;SDS011;7554;43.600;1.480;2022-07-15T12:32:28;9.15;;;5.50;;
14923;SDS011;7554;43.600;1.480;2022-07-15T12:34:56;9.10;;;6.35;;
14923;SDS011;7554;43.600;1.480;2022-07-15T12:37:30;7.35;;;6.10;;
14923;SDS011;7554;43.600;1.480;2022-07-15T12:40:17;7.70;;;6.18;;
14923;SDS011;7554;43.600;1.480;2022-07-15T12:42:48;8.77;;;6.00;;
14923;SDS011;7554;43.600;1.480;2022-07-15T12:45:19;10.93;;;6.10;;
14923;SDS011;7554;43.600;1.480;2022-07-15T12:47:57;9.02;;;5.82;;
14923;SDS011;7554;43.600;1.480;2022-07-15T12:50:26;7.43;;;5.78;;
14923;SDS011;7554;43.600;1.480;2022-07-15T12:52:56;9.20;;;6.45;;
14923;SDS011;7554;43.600;1.480;2022-07-15T12:55:24;7.95;;;6.28;;
14923;SDS011;7554;43.600;1.480;2022-07-15T12:58:01;10.85;;;6.90;;
14923;SDS011;7554;43.600;1.480;2022-07-15T13:00:30;8.52;;;7.68;;
14923;SDS011;7554;43.600;1.480;2022-07-15T13:02:58;9.57;;;8.55;;
14923;SDS011;7554;43.600;1.480;2022-07-15T13:05:29;11.10;;;8.63;;
14923;SDS011;7554;43.600;1.480;2022-07-15T13:07:59;10.95;;;8.02;;
14923;SDS011;7554;43.600;1.480;2022-07-15T13:10:27;8.75;;;7.43;;
14923;SDS011;7554;43.600;1.480;2022-07-15T13:12:55;9.32;;;8.13;;
14923;SDS011;7554;43.600;1.480;2022-07-15T13:15:22;11.05;;;8.52;;
14923;SDS011;7554;43.600;1.480;2022-07-15T13:17:50;9.23;;;8.32;;
14923;SDS011;7554;43.600;1.480;2022-07-15T13:20:18;10.73;;;8.45;;
14923;SDS011;7554;43.600;1.480;2022-07-15T13:22:46;9.68;;;8.30;;
14923;SDS011;7554;43.600;1.480;2022-07-15T13:25:15;11.50;;;9.43;;
14923;SDS011;7554;43.600;1.480;2022-07-15T13:27:42;10.05;;;9.00;;
14923;SDS011;7554;43.600;1.480;2022-07-15T13:30:11;11.02;;;8.73;;
14923;SDS011;7554;43.600;1.480;2022-07-15T13:32:39;10.25;;;9.25;;
14923;SDS011;7554;43.600;1.480;2022-07-15T13:35:08;12.07;;;10.88;;
14923;SDS011;7554;43.600;1.480;2022-07-15T13:37:36;11.55;;;10.43;;
14923;SDS011;7554;43.600;1.480;2022-07-15T13:40:05;11.50;;;9.73;;
14923;SDS011;7554;43.600;1.480;2022-07-15T13:42:35;11.38;;;10.35;;
14923;SDS011;7554;43.600;1.480;2022-07-15T13:45:03;13.73;;;12.35;;
14923;SDS011;7554;43.600;1.480;2022-07-15T13:47:32;15.82;;;12.45;;
14923;SDS011;7554;43.600;1.480;2022-07-15T13:50:01;13.20;;;11.55;;
14923;SDS011;7554;43.600;1.480;2022-07-15T13:52:48;10.88;;;9.68;;
14923;SDS011;7554;43.600;1.480;2022-07-15T13:55:16;12.50;;;10.32;;
14923;SDS011;7554;43.600;1.480;2022-07-15T13:57:47;13.27;;;12.05;;
14923;SDS011;7554;43.600;1.480;2022-07-15T14:00:15;13.68;;;12.38;;
14923;SDS011;7554;43.600;1.480;2022-07-15T14:02:44;11.57;;;10.38;;
14923;SDS011;7554;43.600;1.480;2022-07-15T14:05:11;11.40;;;10.23;;
14923;SDS011;7554;43.600;1.480;2022-07-15T14:07:39;12.25;;;11.05;;
14923;SDS011;7554;43.600;1.480;2022-07-15T14:10:07;11.75;;;10.52;;
14923;SDS011;7554;43.600;1.480;2022-07-15T14:12:35;12.13;;;9.93;;
14923;SDS011;7554;43.600;1.480;2022-07-15T14:15:05;10.93;;;9.80;;
14923;SDS011;7554;43.600;1.480;2022-07-15T14:17:33;11.48;;;9.60;;
14923;SDS011;7554;43.600;1.480;2022-07-15T14:20:01;11.18;;;10.15;;
14923;SDS011;7554;43.600;1.480;2022-07-15T14:22:29;10.80;;;9.75;;
14923;SDS011;7554;43.600;1.480;2022-07-15T14:24:57;11.32;;;10.27;;
14923;SDS011;7554;43.600;1.480;2022-07-15T14:27:24;11.20;;;10.13;;
14923;SDS011;7554;43.600;1.480;2022-07-15T14:29:52;11.20;;;9.98;;
14923;SDS011;7554;43.600;1.480;2022-07-15T14:32:22;11.10;;;9.90;;
14923;SDS011;7554;43.600;1.480;2022-07-15T14:34:49;10.60;;;9.60;;
14923;SDS011;7554;43.600;1.480;2022-07-15T14:37:17;10.15;;;8.90;;
14923;SDS011;7554;43.600;1.480;2022-07-15T14:39:44;13.02;;;8.57;;
14923;SDS011;7554;43.600;1.480;2022-07-15T14:42:11;9.63;;;8.73;;
14923;SDS011;7554;43.600;1.480;2022-07-15T14:44:39;8.55;;;7.50;;
14923;SDS011;7554;43.600;1.480;2022-07-15T14:47:06;8.98;;;7.72;;
14923;SDS011;7554;43.600;1.480;2022-07-15T14:49:35;9.00;;;8.10;;
14923;SDS011;7554;43.600;1.480;2022-07-15T14:52:02;10.82;;;8.38;;
14923;SDS011;7554;43.600;1.480;2022-07-15T14:54:30;20.02;;;9.27;;
14923;SDS011;7554;43.600;1.480;2022-07-15T14:56:58;11.07;;;10.07;;
14923;SDS011;7554;43.600;1.480;2022-07-15T14:59:25;12.18;;;9.90;;
14923;SDS011;7554;43.600;1.480;2022-07-15T15:01:52;12.73;;;9.77;;
14923;SDS011;7554;43.600;1.480;2022-07-15T15:04:20;10.85;;;9.75;;
14923;SDS011;7554;43.600;1.480;2022-07-15T15:06:49;14.30;;;10.80;;
14923;SDS011;7554;43.600;1.480;2022-07-15T15:09:16;9.40;;;8.43;;
14923;SDS011;7554;43.600;1.480;2022-07-15T15:11:44;9.10;;;7.93;;
14923;SDS011;7554;43.600;1.480;2022-07-15T15:14:11;8.30;;;7.18;;